Time;durP1;ratioP1;P1;durP2;ratioP2;P2;SDS_P1;SDS_P2;PMS_P1;PMS_P2;Temp;Humidity;BMP_temperature;BMP_pressure;BME280_temperature;BME280_humidity;BME280_pressure;Samples;Min_cycle;Max_cycle;Signal;HPM_P1;HPM_P2
2021/10/31 00:00:21;;;;;;;101.07;53.87;;;;;;;5.72;68.45;101699.89;127336;1101;101679;-80
2021/10/31 00:03:09;;;;;;;96.73;52.60;;;;;;;5.79;68.66;101695.14;126500;1102;101611;-80
2021/10/31 00:05:43;;;;;;;96.53;51.83;;;;;;;5.82;68.78;101701.47;127344;1101;101511;-79
2021/10/31 00:08:14;;;;;;;98.20;52.17;;;;;;;5.89;68.68;101692.40;126310;1102;102620;-80
2021/10/31 00:10:42;;;;;;;90.80;51.57;;;;;;;5.92;68.38;101703.98;127170;1101;101250;-79
2021/10/31 00:13:12;;;;;;;93.73;49.47;;;;;;;5.95;68.78;101698.06;127354;1101;101556;-79
2021/10/31 00:15:41;;;;;;;99.87;51.77;;;;;;;5.99;68.51;101700.14;127406;1101;101572;-79
2021/10/31 00:18:09;;;;;;;91.47;50.43;;;;;;;6.03;68.43;101696.05;127229;1101;101556;-79
2021/10/31 00:20:37;;;;;;;86.60;50.43;;;;;;;6.07;68.58;101705.92;127350;1101;101916;-79
2021/10/31 00:23:06;;;;;;;88.50;49.13;;;;;;;6.12;68.66;101701.94;127351;1102;101434;-80
2021/10/31 00:25:39;;;;;;;82.83;45.20;;;;;;;6.16;68.87;101701.37;127276;1101;101549;-80
2021/10/31 00:28:12;;;;;;;83.57;46.67;;;;;;;6.22;68.74;101698.33;127263;1101;101402;-80
2021/10/31 00:30:45;;;;;;;81.73;46.47;;;;;;;6.27;68.94;101699.55;126324;1102;101458;-79
2021/10/31 00:33:16;;;;;;;88.83;48.13;;;;;;;6.29;68.77;101697.95;127305;1101;101929;-79
2021/10/31 00:35:45;;;;;;;86.40;47.20;;;;;;;6.28;69.13;101696.16;126316;1102;101783;-79
2021/10/31 00:38:16;;;;;;;87.40;48.00;;;;;;;6.24;69.42;101700.22;127293;1101;101115;-79
2021/10/31 00:40:48;;;;;;;89.90;49.30;;;;;;;6.21;69.03;101696.50;126309;1102;101425;-79
2021/10/31 00:43:19;;;;;;;86.73;48.77;;;;;;;6.21;68.80;101704.32;126345;1101;101621;-80
2021/10/31 00:45:49;;;;;;;92.93;48.83;;;;;;;6.23;68.62;101689.69;127308;1100;101897;-79
2021/10/31 00:48:17;;;;;;;89.77;49.80;;;;;;;6.29;68.75;101697.95;127293;1101;101535;-80
2021/10/31 00:50:49;;;;;;;86.10;47.97;;;;;;;6.28;69.00;101690.95;127357;1101;101645;-80
2021/10/31 00:53:18;;;;;;;77.73;43.97;;;;;;;6.32;68.91;101684.24;127326;1101;101523;-80
2021/10/31 00:55:46;;;;;;;83.40;46.13;;;;;;;6.24;68.68;101686.30;127407;1101;101533;-80
2021/10/31 00:58:14;;;;;;;81.60;46.03;;;;;;;6.23;68.92;101695.83;127339;1101;101932;-80
2021/10/31 01:00:43;;;;;;;81.60;46.53;;;;;;;6.25;68.83;101695.94;127246;1100;101844;-80
2021/10/31 01:03:11;;;;;;;79.13;44.40;;;;;;;6.29;68.99;101687.52;126306;1102;101579;-79
2021/10/31 01:05:46;;;;;;;81.20;44.67;;;;;;;6.26;69.18;101688.23;127380;1100;101523;-79
2021/10/31 01:08:30;;;;;;;78.37;45.07;;;;;;;6.19;68.75;101683.36;126307;1102;102123;-79
2021/10/31 01:11:08;;;;;;;81.10;43.00;;;;;;;6.13;68.46;101676.80;127213;1100;120062;-79
2021/10/31 01:13:50;;;;;;;79.57;44.13;;;;;;;6.06;69.13;101683.25;126334;1102;101582;-80
2021/10/31 01:16:36;;;;;;;77.37;41.47;;;;;;;6.04;68.40;101675.32;127310;1101;101591;-79
2021/10/31 01:19:25;;;;;;;81.47;44.93;;;;;;;6.07;68.90;101679.86;126306;1102;101644;-79
2021/10/31 01:22:02;;;;;;;81.27;43.97;;;;;;;6.08;68.66;101674.76;126382;1102;101588;-79
2021/10/31 01:24:44;;;;;;;75.67;43.13;;;;;;;6.13;69.02;101676.80;126354;1102;101984;-79
2021/10/31 01:27:27;;;;;;;85.23;43.63;;;;;;;6.13;69.03;101664.67;127320;1102;101779;-79
2021/10/31 01:30:05;;;;;;;74.17;41.60;;;;;;;6.09;68.83;101654.80;127256;1101;101538;-79
2021/10/31 01:32:53;;;;;;;81.37;43.20;;;;;;;6.06;69.02;101658.12;127345;1101;101517;-80
2021/10/31 01:35:41;;;;;;;76.13;42.07;;;;;;;6.07;68.96;101651.20;127391;1101;101491;-80
2021/10/31 01:38:17;;;;;;;76.50;41.23;;;;;;;6.04;68.91;101648.37;127425;1101;102023;-79
2021/10/31 01:40:56;;;;;;;77.47;42.40;;;;;;;6.03;68.82;101643.94;127180;1102;101849;-79
2021/10/31 01:43:30;;;;;;;76.87;41.90;;;;;;;6.06;69.20;101647.70;127323;1101;101472;-80
2021/10/31 01:46:07;;;;;;;73.52;39.95;;;;;;;6.10;68.73;101640.99;127338;1101;101909;-80
2021/10/31 01:48:50;;;;;;;81.10;44.07;;;;;;;6.06;68.84;101642.48;126351;1102;101561;-80
2021/10/31 01:51:27;;;;;;;79.13;43.27;;;;;;;6.11;68.75;101651.53;126315;1102;102776;-79
2021/10/31 01:53:59;;;;;;;74.80;41.73;;;;;;;6.15;68.89;101642.22;127342;1101;101841;-79
2021/10/31 01:56:35;;;;;;;81.13;42.13;;;;;;;6.22;68.96;101635.77;126373;1102;101601;-80
2021/10/31 01:59:08;;;;;;;72.67;41.87;;;;;;;6.26;69.06;101636.09;127350;1101;101076;-80
2021/10/31 02:01:44;;;;;;;77.80;42.73;;;;;;;6.29;68.68;101633.70;127235;1101;101407;-80
2021/10/31 02:04:20;;;;;;;74.40;41.13;;;;;;;6.34;69.06;101636.61;126305;1102;102819;-80
2021/10/31 02:06:53;;;;;;;75.17;41.93;;;;;;;6.36;68.86;101629.83;126273;1105;101849;-80
2021/10/31 02:09:29;;;;;;;77.13;42.77;;;;;;;6.41;69.02;101627.55;126293;1105;101761;-80
2021/10/31 02:12:01;;;;;;;73.25;40.40;;;;;;;6.36;68.91;101624.61;126230;1105;101954;-79
2021/10/31 02:14:36;;;;;;;77.07;43.37;;;;;;;6.35;69.09;101622.79;126022;1105;101657;-80
2021/10/31 02:17:07;;;;;;;75.67;42.40;;;;;;;6.38;68.89;101614.30;126321;1105;103131;-79
2021/10/31 02:19:40;;;;;;;73.83;42.07;;;;;;;6.39;69.06;101614.39;126258;1105;101669;-79
2021/10/31 02:22:12;;;;;;;75.90;42.60;;;;;;;6.42;68.92;101629.33;126219;1105;101832;-79
2021/10/31 02:24:41;;;;;;;67.40;38.93;;;;;;;6.41;68.57;101623.22;126260;1105;101630;-79
2021/10/31 02:27:14;;;;;;;70.27;41.30;;;;;;;6.39;68.95;101616.08;126298;1105;101592;-78
2021/10/31 02:29:47;;;;;;;68.33;40.03;;;;;;;6.36;68.89;101622.00;126307;1105;101918;-79
2021/10/31 02:32:16;;;;;;;72.72;41.45;;;;;;;6.33;69.16;101626.07;126247;1104;101606;-79
2021/10/31 02:34:45;;;;;;;74.10;41.90;;;;;;;6.34;69.00;101618.36;126307;1105;101818;-80
2021/10/31 02:37:13;;;;;;;73.47;39.87;;;;;;;6.39;68.99;101618.69;126280;1105;101729;-80
2021/10/31 02:39:41;;;;;;;74.67;39.87;;;;;;;6.41;69.21;101615.40;126313;1105;101720;-79
2021/10/31 02:42:09;;;;;;;71.47;40.83;;;;;;;6.43;69.00;101618.11;126307;1105;102405;-80
2021/10/31 02:44:37;;;;;;;73.27;40.70;;;;;;;6.44;69.45;101612.11;127204;1101;101618;-79
2021/10/31 02:47:07;;;;;;;66.50;38.60;;;;;;;6.42;69.08;101617.22;126345;1102;101674;-79
2021/10/31 02:49:36;;;;;;;71.27;38.17;;;;;;;6.39;69.72;101619.61;126289;1101;101624;-79
2021/10/31 02:52:16;;;;;;;70.00;37.43;;;;;;;6.41;69.77;101618.01;127236;1101;101623;-80
2021/10/31 02:54:51;;;;;;;63.63;34.63;;;;;;;6.40;69.30;101618.80;127396;1101;102032;-79
2021/10/31 02:57:26;;;;;;;64.10;34.73;;;;;;;6.44;69.55;101614.72;127350;1101;101526;-79
2021/10/31 03:00:00;;;;;;;61.30;35.10;;;;;;;6.51;69.57;101614.33;127327;1101;101126;-79
2021/10/31 03:02:30;;;;;;;67.60;38.40;;;;;;;6.59;69.28;101622.69;127236;1101;101279;-80
2021/10/31 03:04:58;;;;;;;68.93;38.33;;;;;;;6.64;69.25;101613.51;127381;1101;101497;-80
2021/10/31 03:07:26;;;;;;;71.13;38.47;;;;;;;6.68;69.55;101614.61;127352;1102;101907;-80
2021/10/31 03:09:54;;;;;;;69.57;39.10;;;;;;;6.71;69.51;101623.55;126272;1101;101610;-80
2021/10/31 03:12:22;;;;;;;71.60;39.67;;;;;;;6.74;69.40;101623.76;127199;1101;101617;-79
2021/10/31 03:14:50;;;;;;;71.53;41.97;;;;;;;6.80;69.73;101613.75;127365;1101;101304;-80
2021/10/31 03:17:18;;;;;;;77.17;43.53;;;;;;;6.84;69.54;101615.78;127349;1101;101527;-79
2021/10/31 03:19:46;;;;;;;72.00;39.90;;;;;;;6.88;68.99;101614.27;127317;1101;101930;-80
2021/10/31 03:22:15;;;;;;;74.20;41.87;;;;;;;6.89;69.24;101612.56;127094;1101;101935;-79
2021/10/31 03:24:43;;;;;;;79.23;43.03;;;;;;;6.90;69.62;101610.05;127390;1102;101574;-80
2021/10/31 03:27:11;;;;;;;75.67;43.67;;;;;;;6.94;69.58;101605.97;127316;1101;101518;-80
2021/10/31 03:29:39;;;;;;;72.63;41.57;;;;;;;6.96;69.64;101612.19;127331;1101;101528;-79
2021/10/31 03:32:07;;;;;;;71.17;40.67;;;;;;;6.97;69.88;101607.07;127233;1101;102973;-80
2021/10/31 03:34:36;;;;;;;67.47;39.63;;;;;;;7.01;69.45;101610.78;126313;1101;101913;-79
2021/10/31 03:37:06;;;;;;;69.20;40.33;;;;;;;7.06;69.48;101612.02;127296;1101;101512;-79
2021/10/31 03:39:34;;;;;;;71.33;39.77;;;;;;;7.09;69.47;101611.30;127340;1101;101316;-80
2021/10/31 03:42:03;;;;;;;71.13;38.93;;;;;;;7.14;69.26;101616.05;127314;1101;102122;-79
2021/10/31 03:44:35;;;;;;;76.50;42.30;;;;;;;7.15;69.54;101611.72;127377;1101;103172;-80
2021/10/31 03:47:04;;;;;;;74.10;40.80;;;;;;;7.16;69.25;101603.99;126277;1102;101612;-80
2021/10/31 03:49:32;;;;;;;68.73;39.03;;;;;;;7.20;69.54;101608.62;127359;1101;101137;-80
2021/10/31 03:52:00;;;;;;;69.33;40.20;;;;;;;7.26;69.36;101600.31;127258;1101;101503;-80
2021/10/31 03:54:28;;;;;;;70.67;40.37;;;;;;;7.29;69.54;101596.98;127376;1101;102045;-80
2021/10/31 03:56:56;;;;;;;72.17;41.77;;;;;;;7.31;69.31;101598.01;127362;1101;103088;-80
2021/10/31 03:59:24;;;;;;;77.23;41.57;;;;;;;7.34;69.62;101599.11;127307;1101;101961;-80
2021/10/31 04:01:52;;;;;;;72.80;41.13;;;;;;;7.34;69.63;101598.22;127164;1101;101516;-80
2021/10/31 04:04:20;;;;;;;74.50;41.10;;;;;;;7.33;69.42;101596.39;127202;1101;101566;-80
2021/10/31 04:06:48;;;;;;;70.87;39.33;;;;;;;7.33;69.27;101594.67;127414;1101;101501;-80
2021/10/31 04:09:16;;;;;;;70.43;38.93;;;;;;;7.33;69.50;101592.06;127368;1101;102956;-80
2021/10/31 04:11:44;;;;;;;67.60;39.63;;;;;;;7.36;69.13;101588.77;127327;1101;101565;-79
2021/10/31 04:14:12;;;;;;;69.03;39.27;;;;;;;7.39;69.28;101591.58;127225;1101;101520;-80
2021/10/31 04:16:40;;;;;;;74.50;40.40;;;;;;;7.44;69.29;101591.88;127351;1101;101601;-80
2021/10/31 04:19:08;;;;;;;67.63;36.23;;;;;;;7.48;69.22;101591.25;127064;1101;101857;-79
2021/10/31 04:21:36;;;;;;;64.63;36.10;;;;;;;7.53;69.75;101592.48;127324;1100;101904;-80
2021/10/31 04:24:05;;;;;;;59.10;30.13;;;;;;;7.55;69.49;101583.03;127163;1101;101531;-80
2021/10/31 04:26:33;;;;;;;58.90;31.43;;;;;;;7.58;70.07;101591.06;127410;1101;101644;-79
2021/10/31 04:29:01;;;;;;;54.93;30.47;;;;;;;7.63;69.72;101583.53;126278;1102;101609;-80
2021/10/31 04:31:29;;;;;;;59.33;32.10;;;;;;;7.66;69.33;101575.89;127349;1101;101075;-80
2021/10/31 04:33:57;;;;;;;61.80;31.60;;;;;;;7.64;69.99;101572.29;127257;1101;103012;-79
2021/10/31 04:36:25;;;;;;;57.73;32.07;;;;;;;7.66;69.75;101573.28;127306;1101;101543;-79
2021/10/31 04:38:55;;;;;;;57.33;32.60;;;;;;;7.69;69.87;101570.87;127381;1101;101924;-79
2021/10/31 04:41:25;;;;;;;60.00;32.97;;;;;;;7.70;69.80;101573.58;127400;1101;101564;-80
2021/10/31 04:43:53;;;;;;;62.67;33.07;;;;;;;7.70;69.67;101564.84;127188;1101;101330;-79
2021/10/31 04:46:21;;;;;;;59.83;31.70;;;;;;;7.69;69.68;101570.87;126336;1101;101936;-80
2021/10/31 04:48:49;;;;;;;65.47;33.73;;;;;;;7.65;69.75;101561.94;127338;1101;101756;-80
2021/10/31 04:51:17;;;;;;;61.30;32.80;;;;;;;7.63;69.76;101560.91;127345;1101;101602;-80
2021/10/31 04:53:45;;;;;;;61.67;33.23;;;;;;;7.66;70.05;101568.05;127247;1101;101584;-79
2021/10/31 04:56:13;;;;;;;63.43;35.20;;;;;;;7.68;70.06;101566.44;127371;1101;101062;-79
2021/10/31 04:58:41;;;;;;;66.17;36.40;;;;;;;7.66;69.80;101565.44;127379;1101;102043;-79
2021/10/31 05:01:09;;;;;;;64.60;36.13;;;;;;;7.63;69.66;101558.30;127189;1101;101662;-80
2021/10/31 05:03:37;;;;;;;68.20;36.43;;;;;;;7.62;69.81;101559.13;127192;1101;101344;-80
2021/10/31 05:06:07;;;;;;;67.90;38.47;;;;;;;7.60;69.91;101554.59;127326;1101;101570;-79
2021/10/31 05:08:38;;;;;;;67.40;38.70;;;;;;;7.58;69.68;101550.99;126385;1102;101092;-79
2021/10/31 05:11:09;;;;;;;64.20;38.93;;;;;;;7.58;69.46;101550.99;126364;1102;101942;-79
2021/10/31 05:13:39;;;;;;;69.53;39.83;;;;;;;7.59;69.38;101552.78;127357;1101;101590;-80
2021/10/31 05:16:07;;;;;;;68.50;38.57;;;;;;;7.62;69.69;101566.04;127333;1100;101095;-80
2021/10/31 05:18:35;;;;;;;70.53;39.03;;;;;;;7.60;69.22;101565.05;127309;1101;101543;-79
2021/10/31 05:21:04;;;;;;;71.27;38.83;;;;;;;7.59;69.59;101563.23;127348;1101;101470;-79
2021/10/31 05:23:32;;;;;;;73.03;40.40;;;;;;;7.62;69.87;101566.04;127373;1101;101870;-79
2021/10/31 05:26:00;;;;;;;73.50;40.47;;;;;;;7.60;69.57;101565.94;127212;1101;108132;-79
2021/10/31 05:28:28;;;;;;;73.07;40.40;;;;;;;7.62;70.29;101566.04;127132;1101;101510;-79
2021/10/31 05:30:56;;;;;;;73.60;38.83;;;;;;;7.63;69.64;101570.47;126986;1101;101679;-79
2021/10/31 05:33:25;;;;;;;65.63;37.90;;;;;;;7.63;69.81;101570.47;127320;1101;101092;-79
2021/10/31 05:35:53;;;;;;;70.27;38.47;;;;;;;7.64;69.91;101573.19;127142;1101;102958;-79
2021/10/31 05:38:21;;;;;;;69.47;37.40;;;;;;;7.64;69.73;101575.80;127211;1101;101568;-79
2021/10/31 05:40:51;;;;;;;64.87;37.77;;;;;;;7.65;69.91;101574.08;127326;1101;101572;-79
2021/10/31 05:43:19;;;;;;;68.53;36.53;;;;;;;7.65;69.44;101579.30;127286;1101;101680;-79
2021/10/31 05:45:47;;;;;;;70.07;38.43;;;;;;;7.68;69.63;101580.42;126312;1102;101529;-79
2021/10/31 05:48:17;;;;;;;71.43;37.93;;;;;;;7.74;70.17;101579.89;127319;1101;101939;-79
2021/10/31 05:50:45;;;;;;;60.50;35.73;;;;;;;7.76;70.21;101572.16;127305;1101;101579;-79
2021/10/31 05:53:14;;;;;;;61.70;35.33;;;;;;;7.78;69.79;101575.80;127346;1101;101572;-79
2021/10/31 05:55:41;;;;;;;62.47;35.40;;;;;;;7.82;70.24;101576.09;127233;1101;101593;-79
2021/10/31 05:58:09;;;;;;;59.33;34.77;;;;;;;7.86;69.65;101575.45;127383;1101;101529;-78
2021/10/31 06:00:38;;;;;;;67.03;33.93;;;;;;;7.87;69.87;101585.11;127362;1101;102029;-78
2021/10/31 06:03:06;;;;;;;58.63;34.20;;;;;;;7.87;70.21;101574.66;127285;1101;101535;-79
2021/10/31 06:05:34;;;;;;;59.33;34.67;;;;;;;7.90;70.03;101576.58;127248;1101;101799;-79
2021/10/31 06:08:02;;;;;;;60.63;34.40;;;;;;;7.94;70.05;101570.72;127302;1101;101583;-79
2021/10/31 06:10:30;;;;;;;60.33;33.23;;;;;;;7.97;70.09;101572.63;127369;1101;101518;-79
2021/10/31 06:12:58;;;;;;;59.40;32.90;;;;;;;8.02;70.17;101569.48;126320;1102;103141;-79
2021/10/31 06:15:26;;;;;;;61.83;34.47;;;;;;;8.07;70.03;101568.09;127190;1101;101848;-80
2021/10/31 06:17:53;;;;;;;62.40;33.60;;;;;;;8.16;69.60;101572.08;127384;1101;101603;-79
2021/10/31 06:20:22;;;;;;;63.80;34.60;;;;;;;8.21;70.25;101571.56;127305;1101;101599;-79
2021/10/31 06:22:50;;;;;;;55.77;32.73;;;;;;;8.27;69.77;101578.87;127354;1101;101533;-79
2021/10/31 06:25:18;;;;;;;60.20;34.37;;;;;;;8.32;70.32;101579.16;127259;1100;103135;-80
2021/10/31 06:27:46;;;;;;;60.10;35.37;;;;;;;8.40;69.57;101583.17;126334;1102;101578;-79
2021/10/31 06:30:14;;;;;;;66.27;34.93;;;;;;;8.48;69.94;101574.11;127337;1101;101592;-79
2021/10/31 06:32:42;;;;;;;58.63;31.70;;;;;;;8.52;69.54;101578.70;127297;1102;101530;-79
2021/10/31 06:35:10;;;;;;;56.17;30.57;;;;;;;8.51;69.52;101573.37;127317;1101;101501;-80
2021/10/31 06:37:38;;;;;;;51.63;29.83;;;;;;;8.51;70.11;101579.53;127351;1101;117918;-80
2021/10/31 06:40:07;;;;;;;56.23;31.70;;;;;;;8.54;69.46;101578.79;127311;1101;101549;-80
2021/10/31 06:42:35;;;;;;;50.33;27.67;;;;;;;8.57;69.75;101576.36;127360;1101;101522;-79
2021/10/31 06:45:04;;;;;;;45.97;25.60;;;;;;;8.62;69.32;101580.19;127353;1101;101577;-79
2021/10/31 06:47:32;;;;;;;45.00;26.00;;;;;;;8.64;69.53;101576.83;127230;1101;101190;-81
2021/10/31 06:50:01;;;;;;;42.50;23.53;;;;;;;8.71;69.34;101571.97;127333;1101;101938;-80
2021/10/31 06:52:29;;;;;;;42.43;22.20;;;;;;;8.79;69.96;101575.97;127356;1101;101756;-79
2021/10/31 06:54:58;;;;;;;40.57;22.50;;;;;;;8.87;69.48;101572.09;127183;1101;101649;-80
2021/10/31 06:57:26;;;;;;;42.20;23.20;;;;;;;8.96;69.19;101582.19;127187;1100;101625;-80
2021/10/31 06:59:55;;;;;;;40.93;22.97;;;;;;;9.02;69.79;101576.42;126371;1102;101987;-79
2021/10/31 07:02:23;;;;;;;43.40;23.90;;;;;;;9.07;69.32;101577.59;127413;1101;102845;-79
2021/10/31 07:04:51;;;;;;;41.43;22.70;;;;;;;9.10;69.29;101569.91;127283;1102;101791;-80
2021/10/31 07:07:20;;;;;;;41.73;22.20;;;;;;;9.09;69.72;101574.26;127218;1100;101592;-80
2021/10/31 07:09:48;;;;;;;42.57;22.67;;;;;;;9.10;69.18;101576.08;127367;1101;101658;-79
2021/10/31 07:12:16;;;;;;;40.43;21.47;;;;;;;9.12;69.54;101569.20;127385;1101;101022;-80
2021/10/31 07:14:44;;;;;;;35.47;20.20;;;;;;;9.18;69.13;101571.29;127410;1101;101910;-80
2021/10/31 07:17:12;;;;;;;38.53;20.80;;;;;;;9.18;69.37;101569.56;127145;1101;101542;-80
2021/10/31 07:19:40;;;;;;;39.40;20.80;;;;;;;9.19;68.56;101573.08;126363;1102;101632;-79
2021/10/31 07:22:09;;;;;;;38.50;20.87;;;;;;;9.21;68.85;101578.40;127333;1100;101514;-79
2021/10/31 07:24:37;;;;;;;37.00;20.43;;;;;;;9.25;68.83;101572.54;127354;1101;101570;-79
2021/10/31 07:27:06;;;;;;;34.73;17.43;;;;;;;9.23;68.96;101576.80;127224;1101;102048;-79
2021/10/31 07:29:34;;;;;;;35.13;18.70;;;;;;;9.17;68.88;101578.22;127325;1101;101667;-79
2021/10/31 07:32:02;;;;;;;32.47;17.60;;;;;;;9.17;68.43;101578.22;126358;1102;101143;-79
2021/10/31 07:34:30;;;;;;;35.00;19.10;;;;;;;9.23;68.49;101572.45;127395;1101;101549;-80
2021/10/31 07:36:58;;;;;;;37.07;20.47;;;;;;;9.26;68.37;101569.12;127145;1101;101556;-80
2021/10/31 07:39:27;;;;;;;40.20;20.07;;;;;;;9.30;68.45;101572.00;127343;1101;101950;-80
2021/10/31 07:41:55;;;;;;;33.03;17.87;;;;;;;9.34;68.41;101578.31;127304;1101;101789;-80
2021/10/31 07:44:23;;;;;;;42.20;16.93;;;;;;;9.44;68.33;101574.50;126346;1102;101632;-80
2021/10/31 07:46:51;;;;;;;32.77;17.50;;;;;;;9.52;68.76;101567.97;127295;1101;101899;-80
2021/10/31 07:49:19;;;;;;;30.77;16.73;;;;;;;9.62;68.61;101562.45;127360;1101;101531;-79
2021/10/31 07:51:47;;;;;;;30.17;15.97;;;;;;;9.77;68.81;101565.05;126258;1102;101965;-80
2021/10/31 07:54:18;;;;;;;29.87;15.80;;;;;;;9.91;68.24;101565.81;127394;1101;101775;-79
2021/10/31 07:56:46;;;;;;;31.70;15.43;;;;;;;9.97;68.20;101558.28;127329;1101;101526;-80
2021/10/31 07:59:14;;;;;;;27.47;15.00;;;;;;;10.00;67.73;101555.83;127340;1101;113349;-79
2021/10/31 08:01:42;;;;;;;30.40;14.37;;;;;;;10.05;68.22;101551.73;127369;1100;101513;-80
2021/10/31 08:04:10;;;;;;;30.20;15.33;;;;;;;10.15;67.67;101553.13;127415;1101;101969;-80
2021/10/31 08:06:39;;;;;;;32.53;15.27;;;;;;;10.26;68.04;101543.21;127317;1101;101870;-80
2021/10/31 08:09:07;;;;;;;30.90;15.20;;;;;;;10.34;68.15;101544.55;127266;1101;101847;-80
2021/10/31 08:11:35;;;;;;;27.23;14.63;;;;;;;10.45;68.10;101550.37;127378;1101;101282;-80
2021/10/31 08:14:03;;;;;;;26.00;14.27;;;;;;;10.53;67.27;101543.83;127346;1101;101515;-80
2021/10/31 08:16:32;;;;;;;28.63;14.40;;;;;;;10.58;67.54;101551.91;126361;1102;101915;-80
2021/10/31 08:19:01;;;;;;;28.93;14.73;;;;;;;10.55;67.07;101552.67;127194;1101;101875;-79
2021/10/31 08:21:29;;;;;;;28.87;14.20;;;;;;;10.56;67.22;101553.56;126342;1102;101593;-80
2021/10/31 08:23:57;;;;;;;27.40;14.20;;;;;;;10.65;67.43;101546.17;126324;1101;101557;-80
2021/10/31 08:26:26;;;;;;;29.67;14.83;;;;;;;10.76;67.06;101549.35;127359;1101;101549;-79
2021/10/31 08:28:56;;;;;;;27.23;13.60;;;;;;;10.71;66.47;101542.97;127178;1101;102201;-79
2021/10/31 08:31:26;;;;;;;28.57;14.17;;;;;;;10.59;66.27;101540.59;127020;1101;101261;-79
2021/10/31 08:33:57;;;;;;;29.37;14.27;;;;;;;10.55;66.64;101536.92;126878;1102;101538;-79
2021/10/31 08:36:27;;;;;;;28.80;14.73;;;;;;;10.55;66.48;101542.17;126346;1103;101552;-79
2021/10/31 08:38:56;;;;;;;29.73;14.63;;;;;;;10.56;66.10;101537.81;126290;1102;101910;-79
2021/10/31 08:41:26;;;;;;;31.60;15.87;;;;;;;10.60;65.77;101531.91;126972;1101;103606;-79
2021/10/31 08:43:57;;;;;;;28.27;14.03;;;;;;;10.65;65.71;101530.42;126798;1101;101632;-79
2021/10/31 08:46:26;;;;;;;26.50;13.60;;;;;;;10.71;65.87;101530.73;127383;1101;101646;-79
2021/10/31 08:48:54;;;;;;;28.23;14.73;;;;;;;10.79;65.84;101525.88;127096;1101;101896;-80
2021/10/31 08:51:24;;;;;;;33.10;15.03;;;;;;;10.94;66.06;101520.52;127328;1101;101527;-80
2021/10/31 08:53:52;;;;;;;28.97;14.70;;;;;;;11.04;65.62;101514.89;127372;1100;103084;-80
2021/10/31 08:56:22;;;;;;;30.27;15.13;;;;;;;11.14;66.32;101517.16;127365;1101;101756;-79
2021/10/31 08:58:51;;;;;;;30.30;15.97;;;;;;;11.26;65.58;101515.95;127209;1102;101525;-80
2021/10/31 09:01:19;;;;;;;31.90;15.93;;;;;;;11.38;65.70;101516.55;127289;1101;101503;-80
2021/10/31 09:03:49;;;;;;;27.47;14.63;;;;;;;11.45;65.34;101513.41;127385;1101;101514;-78
2021/10/31 09:06:18;;;;;;;29.83;15.63;;;;;;;11.35;65.15;101500.64;127364;1101;101954;-79
2021/10/31 09:08:46;;;;;;;31.87;15.90;;;;;;;11.30;65.22;101505.67;126284;1102;101714;-80
2021/10/31 09:11:14;;;;;;;29.87;15.53;;;;;;;11.33;65.28;101500.56;126362;1102;101666;-80
2021/10/31 09:13:42;;;;;;;29.13;15.37;;;;;;;11.39;64.92;101497.34;127329;1100;101919;-79
2021/10/31 09:16:12;;;;;;;26.33;14.70;;;;;;;11.36;64.68;101494.56;126334;1102;101576;-79
2021/10/31 09:18:41;;;;;;;29.63;16.63;;;;;;;11.28;63.92;101490.64;127251;1101;102123;-78
2021/10/31 09:21:10;;;;;;;29.57;15.43;;;;;;;11.25;64.55;101485.23;127302;1101;101513;-79
2021/10/31 09:23:38;;;;;;;31.10;16.80;;;;;;;11.17;64.22;101481.34;126346;1102;101653;-79
2021/10/31 09:26:06;;;;;;;28.33;14.67;;;;;;;11.15;64.38;101479.53;127307;1102;101553;-79
2021/10/31 09:28:35;;;;;;;31.20;15.77;;;;;;;11.12;63.85;101471.50;127304;1101;101504;-78
2021/10/31 09:31:03;;;;;;;29.07;15.33;;;;;;;11.07;64.14;101473.02;127378;1100;117802;-79
2021/10/31 09:33:33;;;;;;;31.07;16.70;;;;;;;11.07;64.24;101472.12;127314;1101;101297;-80
2021/10/31 09:36:02;;;;;;;28.97;15.83;;;;;;;11.11;64.26;101467.09;127398;1101;101540;-80
2021/10/31 09:38:31;;;;;;;29.27;15.10;;;;;;;11.15;64.27;101460.25;126368;1102;101613;-80
2021/10/31 09:41:00;;;;;;;28.50;15.30;;;;;;;11.26;64.18;101456.41;127203;1101;101610;-80
2021/10/31 09:43:32;;;;;;;30.37;16.60;;;;;;;11.43;64.13;101451.97;127399;1101;102824;-80
2021/10/31 09:46:00;;;;;;;31.50;15.93;;;;;;;11.59;64.20;101453.58;127362;1101;101596;-79
2021/10/31 09:48:32;;;;;;;34.33;16.27;;;;;;;11.64;64.11;101438.02;127330;1101;101620;-79
2021/10/31 09:51:01;;;;;;;31.63;16.50;;;;;;;11.75;63.88;101428.92;127211;1101;101663;-79
2021/10/31 09:53:29;;;;;;;32.93;16.40;;;;;;;11.80;63.92;101427.39;126321;1102;101651;-79
2021/10/31 09:55:57;;;;;;;29.60;16.03;;;;;;;11.90;63.83;101435.70;127343;1101;103487;-79
2021/10/31 09:58:31;;;;;;;31.70;16.40;;;;;;;11.93;63.47;101427.98;127363;1101;101611;-79
2021/10/31 10:01:05;;;;;;;31.10;16.10;;;;;;;11.95;63.32;101426.31;127212;1100;101780;-79
2021/10/31 10:03:36;;;;;;;;;;;;;;;11.94;62.93;101424.53;126313;1105;101664;-79
2021/10/31 10:06:12;;;;;;;31.73;16.10;;;;;;;12.02;63.22;101423.14;126313;1105;101776;-79
2021/10/31 10:08:55;;;;;;;29.73;16.27;;;;;;;12.12;63.18;101414.80;126311;1105;101927;-80
2021/10/31 10:11:24;;;;;;;32.87;16.67;;;;;;;12.21;63.25;101412.57;126291;1105;101966;-80
2021/10/31 10:13:53;;;;;;;30.73;16.63;;;;;;;12.29;63.26;101412.91;126333;1105;101713;-80
2021/10/31 10:16:28;;;;;;;32.53;16.97;;;;;;;12.41;63.27;101404.66;126292;1105;101646;-80
2021/10/31 10:18:56;;;;;;;31.87;16.50;;;;;;;12.50;63.05;101409.42;126303;1105;101125;-80
2021/10/31 10:21:27;;;;;;;29.97;17.13;;;;;;;12.62;62.96;101401.12;126263;1105;102266;-79
2021/10/31 10:23:57;;;;;;;31.47;17.10;;;;;;;12.81;62.43;101390.52;126277;1105;101381;-80
2021/10/31 10:26:29;;;;;;;32.10;17.30;;;;;;;12.97;61.90;101384.12;126290;1105;101654;-80
2021/10/31 10:29:02;;;;;;;30.67;17.80;;;;;;;12.97;62.07;101389.40;126295;1105;101688;-80
2021/10/31 10:31:30;;;;;;;31.12;17.02;;;;;;;12.95;61.90;101376.17;126301;1105;101621;-79
2021/10/31 10:33:59;;;;;;;31.93;17.37;;;;;;;12.88;61.55;101374.11;126297;1105;101929;-79
2021/10/31 10:36:27;;;;;;;31.63;17.03;;;;;;;12.88;61.54;101374.11;127298;1100;101538;-79
2021/10/31 10:39:08;;;;;;;29.73;16.23;;;;;;;12.90;61.28;101369.83;126210;1102;101614;-78
2021/10/31 10:41:48;;;;;;;33.77;17.27;;;;;;;12.88;61.79;101363.57;127142;1101;101482;-79
2021/10/31 10:44:22;;;;;;;31.80;17.60;;;;;;;12.92;60.81;101364.62;127347;1101;101614;-81
2021/10/31 10:46:54;;;;;;;32.17;16.37;;;;;;;12.97;60.31;101362.17;127394;1101;102002;-79
2021/10/31 10:49:23;;;;;;;31.13;16.10;;;;;;;12.90;60.88;101361.00;127341;1101;101642;-79
2021/10/31 10:52:07;;;;;;;29.27;15.47;;;;;;;12.84;60.47;101356.41;127241;1101;101990;-81
2021/10/31 10:54:36;;;;;;;31.17;16.02;;;;;;;12.86;60.66;101352.09;126347;1102;101706;-79
2021/10/31 10:57:07;;;;;;;30.30;15.20;;;;;;;12.93;60.46;101348.87;126326;1102;101664;-80
2021/10/31 10:59:36;;;;;;;30.27;15.50;;;;;;;13.02;60.72;101343.05;127283;1100;101900;-81
2021/10/31 11:02:14;;;;;;;29.33;14.63;;;;;;;12.98;59.97;101340.23;127157;1101;101875;-81
2021/10/31 11:04:45;;;;;;;31.67;16.30;;;;;;;13.00;60.24;101341.22;127375;1102;101532;-80
2021/10/31 11:07:15;;;;;;;29.27;15.83;;;;;;;13.06;60.39;101329.17;127340;1101;101534;-81
2021/10/31 11:09:45;;;;;;;30.30;15.53;;;;;;;13.13;60.85;101330.30;127360;1101;101051;-80
2021/10/31 11:12:27;;;;;;;29.83;14.97;;;;;;;13.19;60.06;101324.38;127249;1101;101984;-80